sensor_id;sensor_type;location;lat;lon;timestamp;P1;durP1;ratioP1;P2;durP2;ratioP2
54993;SDS011;40891;47.242;8.648;2022-12-05T00:02:21;22.40;;;10.17;;
54993;SDS011;40891;47.242;8.648;2022-12-05T00:04:46;23.10;;;10.57;;
54993;SDS011;40891;47.242;8.648;2022-12-05T00:07:11;20.23;;;9.90;;
54993;SDS011;40891;47.242;8.648;2022-12-05T00:09:37;22.87;;;10.70;;
54993;SDS011;40891;47.242;8.648;2022-12-05T00:12:02;19.83;;;10.07;;
54993;SDS011;40891;47.242;8.648;2022-12-05T00:14:28;19.80;;;9.40;;
54993;SDS011;40891;47.242;8.648;2022-12-05T00:16:53;19.33;;;9.73;;
54993;SDS011;40891;47.242;8.648;2022-12-05T00:19:19;19.77;;;9.70;;
54993;SDS011;40891;47.242;8.648;2022-12-05T00:21:44;25.07;;;10.57;;
54993;SDS011;40891;47.242;8.648;2022-12-05T00:24:11;21.73;;;10.03;;
54993;SDS011;40891;47.242;8.648;2022-12-05T00:26:38;21.17;;;9.00;;
54993;SDS011;40891;47.242;8.648;2022-12-05T00:29:04;20.93;;;9.57;;
54993;SDS011;40891;47.242;8.648;2022-12-05T00:31:29;22.50;;;9.50;;
54993;SDS011;40891;47.242;8.648;2022-12-05T00:33:55;19.73;;;9.67;;
54993;SDS011;40891;47.242;8.648;2022-12-05T00:36:24;19.57;;;9.67;;
54993;SDS011;40891;47.242;8.648;2022-12-05T00:38:51;20.90;;;9.97;;
54993;SDS011;40891;47.242;8.648;2022-12-05T00:41:21;18.53;;;9.57;;
54993;SDS011;40891;47.242;8.648;2022-12-05T00:43:51;23.53;;;10.23;;
54993;SDS011;40891;47.242;8.648;2022-12-05T00:46:19;17.93;;;9.83;;
54993;SDS011;40891;47.242;8.648;2022-12-05T00:48:46;17.90;;;8.93;;
54993;SDS011;40891;47.242;8.648;2022-12-05T00:51:16;19.83;;;9.77;;
54993;SDS011;40891;47.242;8.648;2022-12-05T00:53:44;20.57;;;9.37;;
54993;SDS011;40891;47.242;8.648;2022-12-05T00:56:11;23.03;;;10.37;;
54993;SDS011;40891;47.242;8.648;2022-12-05T00:58:38;20.00;;;9.93;;
54993;SDS011;40891;47.242;8.648;2022-12-05T01:01:05;19.73;;;9.83;;
54993;SDS011;40891;47.242;8.648;2022-12-05T01:03:36;25.10;;;10.47;;
54993;SDS011;40891;47.242;8.648;2022-12-05T01:06:02;26.13;;;10.43;;
54993;SDS011;40891;47.242;8.648;2022-12-05T01:08:30;20.97;;;10.20;;
54993;SDS011;40891;47.242;8.648;2022-12-05T01:10:56;20.23;;;10.87;;
54993;SDS011;40891;47.242;8.648;2022-12-05T01:13:22;21.50;;;10.50;;
54993;SDS011;40891;47.242;8.648;2022-12-05T01:15:49;19.33;;;9.47;;
54993;SDS011;40891;47.242;8.648;2022-12-05T01:18:15;22.20;;;10.50;;
54993;SDS011;40891;47.242;8.648;2022-12-05T01:20:41;25.10;;;10.93;;
54993;SDS011;40891;47.242;8.648;2022-12-05T01:23:07;21.00;;;10.73;;
54993;SDS011;40891;47.242;8.648;2022-12-05T01:25:33;18.60;;;10.10;;
54993;SDS011;40891;47.242;8.648;2022-12-05T01:27:58;23.60;;;11.17;;
54993;SDS011;40891;47.242;8.648;2022-12-05T01:30:24;21.37;;;10.20;;
54993;SDS011;40891;47.242;8.648;2022-12-05T01:32:49;19.07;;;10.00;;
54993;SDS011;40891;47.242;8.648;2022-12-05T01:35:14;23.03;;;11.00;;
54993;SDS011;40891;47.242;8.648;2022-12-05T01:37:40;26.60;;;10.70;;
54993;SDS011;40891;47.242;8.648;2022-12-05T01:40:05;23.37;;;12.00;;
54993;SDS011;40891;47.242;8.648;2022-12-05T01:42:32;25.70;;;11.23;;
54993;SDS011;40891;47.242;8.648;2022-12-05T01:44:58;24.53;;;11.50;;
54993;SDS011;40891;47.242;8.648;2022-12-05T01:47:26;22.67;;;11.10;;
54993;SDS011;40891;47.242;8.648;2022-12-05T01:49:54;25.43;;;11.90;;
54993;SDS011;40891;47.242;8.648;2022-12-05T01:52:22;26.43;;;12.53;;
54993;SDS011;40891;47.242;8.648;2022-12-05T01:54:51;24.30;;;12.17;;
54993;SDS011;40891;47.242;8.648;2022-12-05T01:57:20;26.80;;;11.97;;
54993;SDS011;40891;47.242;8.648;2022-12-05T01:59:47;24.00;;;12.17;;
54993;SDS011;40891;47.242;8.648;2022-12-05T02:02:15;24.97;;;11.57;;
54993;SDS011;40891;47.242;8.648;2022-12-05T02:04:56;25.73;;;11.43;;
54993;SDS011;40891;47.242;8.648;2022-12-05T02:07:23;31.67;;;14.27;;
54993;SDS011;40891;47.242;8.648;2022-12-05T02:09:49;28.70;;;14.30;;
54993;SDS011;40891;47.242;8.648;2022-12-05T02:12:15;33.73;;;15.13;;
54993;SDS011;40891;47.242;8.648;2022-12-05T02:17:33;34.23;;;13.87;;
54993;SDS011;40891;47.242;8.648;2022-12-05T02:20:24;37.63;;;15.97;;
54993;SDS011;40891;47.242;8.648;2022-12-05T02:25:36;30.93;;;15.03;;
54993;SDS011;40891;47.242;8.648;2022-12-05T02:28:37;36.93;;;15.10;;
54993;SDS011;40891;47.242;8.648;2022-12-05T02:31:15;34.97;;;14.53;;
54993;SDS011;40891;47.242;8.648;2022-12-05T02:42:14;28.50;;;13.27;;
54993;SDS011;40891;47.242;8.648;2022-12-05T02:44:52;32.97;;;13.77;;
54993;SDS011;40891;47.242;8.648;2022-12-05T02:47:24;27.33;;;13.53;;
54993;SDS011;40891;47.242;8.648;2022-12-05T02:49:52;23.10;;;11.60;;
54993;SDS011;40891;47.242;8.648;2022-12-05T02:52:19;25.33;;;11.33;;
54993;SDS011;40891;47.242;8.648;2022-12-05T02:54:47;26.17;;;12.03;;
54993;SDS011;40891;47.242;8.648;2022-12-05T02:57:15;26.57;;;11.67;;
54993;SDS011;40891;47.242;8.648;2022-12-05T02:59:41;30.87;;;13.27;;
54993;SDS011;40891;47.242;8.648;2022-12-05T03:02:07;25.87;;;11.97;;
54993;SDS011;40891;47.242;8.648;2022-12-05T03:04:46;28.60;;;12.43;;
54993;SDS011;40891;47.242;8.648;2022-12-05T03:07:11;27.50;;;12.60;;
54993;SDS011;40891;47.242;8.648;2022-12-05T03:09:42;30.63;;;12.43;;
54993;SDS011;40891;47.242;8.648;2022-12-05T03:12:21;30.53;;;13.00;;
54993;SDS011;40891;47.242;8.648;2022-12-05T03:14:55;27.53;;;12.30;;
54993;SDS011;40891;47.242;8.648;2022-12-05T03:17:30;28.57;;;12.00;;
54993;SDS011;40891;47.242;8.648;2022-12-05T03:22:41;28.13;;;12.03;;
54993;SDS011;40891;47.242;8.648;2022-12-05T03:25:13;23.83;;;10.60;;
54993;SDS011;40891;47.242;8.648;2022-12-05T03:27:52;27.33;;;11.03;;
54993;SDS011;40891;47.242;8.648;2022-12-05T03:30:45;24.30;;;11.13;;
54993;SDS011;40891;47.242;8.648;2022-12-05T03:33:22;24.83;;;11.50;;
54993;SDS011;40891;47.242;8.648;2022-12-05T03:36:04;19.77;;;10.43;;
54993;SDS011;40891;47.242;8.648;2022-12-05T03:38:34;23.10;;;11.13;;
54993;SDS011;40891;47.242;8.648;2022-12-05T03:41:12;21.67;;;11.30;;
54993;SDS011;40891;47.242;8.648;2022-12-05T03:46:17;23.83;;;11.93;;
54993;SDS011;40891;47.242;8.648;2022-12-05T03:48:58;24.57;;;10.83;;
54993;SDS011;40891;47.242;8.648;2022-12-05T03:51:32;24.67;;;12.00;;
54993;SDS011;40891;47.242;8.648;2022-12-05T03:54:04;24.97;;;11.67;;
54993;SDS011;40891;47.242;8.648;2022-12-05T03:56:42;25.40;;;11.27;;
54993;SDS011;40891;47.242;8.648;2022-12-05T03:59:19;23.70;;;10.77;;
54993;SDS011;40891;47.242;8.648;2022-12-05T04:01:51;22.37;;;11.80;;
54993;SDS011;40891;47.242;8.648;2022-12-05T04:04:28;25.83;;;11.17;;
54993;SDS011;40891;47.242;8.648;2022-12-05T04:06:58;25.30;;;11.33;;
54993;SDS011;40891;47.242;8.648;2022-12-05T04:09:29;23.37;;;11.00;;
54993;SDS011;40891;47.242;8.648;2022-12-05T04:12:05;24.43;;;11.60;;
54993;SDS011;40891;47.242;8.648;2022-12-05T04:14:39;17.53;;;9.57;;
54993;SDS011;40891;47.242;8.648;2022-12-05T04:17:15;22.00;;;11.30;;
54993;SDS011;40891;47.242;8.648;2022-12-05T04:20:01;21.73;;;10.23;;
54993;SDS011;40891;47.242;8.648;2022-12-05T04:22:49;19.70;;;9.13;;
54993;SDS011;40891;47.242;8.648;2022-12-05T04:25:15;18.37;;;8.43;;
54993;SDS011;40891;47.242;8.648;2022-12-05T04:31:10;17.57;;;8.17;;
54993;SDS011;40891;47.242;8.648;2022-12-05T04:41:10;16.37;;;7.90;;
54993;SDS011;40891;47.242;8.648;2022-12-05T04:43:48;17.97;;;8.10;;
54993;SDS011;40891;47.242;8.648;2022-12-05T04:46:16;15.37;;;7.53;;
54993;SDS011;40891;47.242;8.648;2022-12-05T04:48:44;13.23;;;6.37;;
54993;SDS011;40891;47.242;8.648;2022-12-05T04:51:18;9.00;;;5.33;;
54993;SDS011;40891;47.242;8.648;2022-12-05T04:53:48;10.93;;;5.47;;
54993;SDS011;40891;47.242;8.648;2022-12-05T04:56:19;7.73;;;4.00;;
54993;SDS011;40891;47.242;8.648;2022-12-05T04:58:47;7.43;;;3.87;;
54993;SDS011;40891;47.242;8.648;2022-12-05T05:01:24;4.63;;;2.73;;
54993;SDS011;40891;47.242;8.648;2022-12-05T05:04:01;5.73;;;2.97;;
54993;SDS011;40891;47.242;8.648;2022-12-05T05:06:35;5.40;;;3.10;;
54993;SDS011;40891;47.242;8.648;2022-12-05T05:09:02;4.57;;;3.00;;
54993;SDS011;40891;47.242;8.648;2022-12-05T05:11:28;4.00;;;2.77;;
54993;SDS011;40891;47.242;8.648;2022-12-05T05:13:57;5.77;;;2.93;;
54993;SDS011;40891;47.242;8.648;2022-12-05T05:16:23;4.50;;;2.00;;
54993;SDS011;40891;47.242;8.648;2022-12-05T05:18:51;2.67;;;1.60;;
54993;SDS011;40891;47.242;8.648;2022-12-05T05:21:18;2.93;;;1.77;;
54993;SDS011;40891;47.242;8.648;2022-12-05T05:23:54;2.97;;;1.93;;
54993;SDS011;40891;47.242;8.648;2022-12-05T05:26:21;3.20;;;2.10;;
54993;SDS011;40891;47.242;8.648;2022-12-05T05:28:47;3.63;;;2.17;;
54993;SDS011;40891;47.242;8.648;2022-12-05T05:31:13;5.17;;;2.67;;
54993;SDS011;40891;47.242;8.648;2022-12-05T05:33:39;4.07;;;2.60;;
54993;SDS011;40891;47.242;8.648;2022-12-05T05:36:06;4.70;;;2.77;;
54993;SDS011;40891;47.242;8.648;2022-12-05T05:38:46;4.10;;;2.73;;
54993;SDS011;40891;47.242;8.648;2022-12-05T05:41:14;4.87;;;2.60;;
54993;SDS011;40891;47.242;8.648;2022-12-05T05:43:54;3.97;;;2.80;;
54993;SDS011;40891;47.242;8.648;2022-12-05T05:46:21;6.73;;;3.40;;
54993;SDS011;40891;47.242;8.648;2022-12-05T05:48:49;4.70;;;2.40;;
54993;SDS011;40891;47.242;8.648;2022-12-05T05:51:15;5.57;;;2.37;;
54993;SDS011;40891;47.242;8.648;2022-12-05T05:53:41;4.47;;;2.10;;
54993;SDS011;40891;47.242;8.648;2022-12-05T05:56:08;3.70;;;2.20;;
54993;SDS011;40891;47.242;8.648;2022-12-05T05:58:36;4.53;;;2.23;;
54993;SDS011;40891;47.242;8.648;2022-12-05T06:01:06;4.40;;;2.20;;
54993;SDS011;40891;47.242;8.648;2022-12-05T06:03:33;3.27;;;1.90;;
54993;SDS011;40891;47.242;8.648;2022-12-05T06:05:59;4.20;;;2.33;;
54993;SDS011;40891;47.242;8.648;2022-12-05T06:08:30;3.10;;;2.30;;
54993;SDS011;40891;47.242;8.648;2022-12-05T06:10:58;3.63;;;2.30;;
54993;SDS011;40891;47.242;8.648;2022-12-05T06:13:23;4.17;;;1.83;;
54993;SDS011;40891;47.242;8.648;2022-12-05T06:15:49;3.00;;;1.97;;
54993;SDS011;40891;47.242;8.648;2022-12-05T06:18:14;5.00;;;2.37;;
54993;SDS011;40891;47.242;8.648;2022-12-05T06:20:40;4.70;;;2.00;;
54993;SDS011;40891;47.242;8.648;2022-12-05T06:23:05;3.40;;;2.37;;
54993;SDS011;40891;47.242;8.648;2022-12-05T06:25:31;3.67;;;2.33;;
54993;SDS011;40891;47.242;8.648;2022-12-05T06:27:56;2.93;;;2.00;;
54993;SDS011;40891;47.242;8.648;2022-12-05T06:30:22;2.40;;;2.00;;
54993;SDS011;40891;47.242;8.648;2022-12-05T06:32:47;4.90;;;2.40;;
54993;SDS011;40891;47.242;8.648;2022-12-05T06:35:12;4.27;;;2.53;;
54993;SDS011;40891;47.242;8.648;2022-12-05T06:37:41;3.13;;;1.77;;
54993;SDS011;40891;47.242;8.648;2022-12-05T06:40:07;8.23;;;2.17;;
54993;SDS011;40891;47.242;8.648;2022-12-05T06:42:33;4.27;;;1.90;;
54993;SDS011;40891;47.242;8.648;2022-12-05T06:44:58;4.37;;;1.87;;
54993;SDS011;40891;47.242;8.648;2022-12-05T06:47:23;2.60;;;1.70;;
54993;SDS011;40891;47.242;8.648;2022-12-05T06:49:49;2.27;;;1.50;;
54993;SDS011;40891;47.242;8.648;2022-12-05T06:52:14;2.47;;;1.50;;
54993;SDS011;40891;47.242;8.648;2022-12-05T06:54:40;2.00;;;1.70;;
54993;SDS011;40891;47.242;8.648;2022-12-05T06:57:05;1.47;;;1.10;;
54993;SDS011;40891;47.242;8.648;2022-12-05T06:59:30;1.57;;;1.37;;
54993;SDS011;40891;47.242;8.648;2022-12-05T07:01:56;2.57;;;1.63;;
54993;SDS011;40891;47.242;8.648;2022-12-05T07:04:21;2.37;;;1.60;;
54993;SDS011;40891;47.242;8.648;2022-12-05T07:06:50;2.73;;;1.77;;
54993;SDS011;40891;47.242;8.648;2022-12-05T07:09:23;1.93;;;1.23;;
54993;SDS011;40891;47.242;8.648;2022-12-05T07:12:09;1.70;;;1.33;;
54993;SDS011;40891;47.242;8.648;2022-12-05T07:14:36;1.40;;;1.10;;
54993;SDS011;40891;47.242;8.648;2022-12-05T07:17:01;1.70;;;1.23;;
54993;SDS011;40891;47.242;8.648;2022-12-05T07:19:27;2.03;;;1.10;;
54993;SDS011;40891;47.242;8.648;2022-12-05T07:21:52;2.00;;;1.10;;
54993;SDS011;40891;47.242;8.648;2022-12-05T07:24:17;1.50;;;1.03;;
54993;SDS011;40891;47.242;8.648;2022-12-05T07:26:43;1.20;;;1.10;;
54993;SDS011;40891;47.242;8.648;2022-12-05T07:29:08;1.70;;;1.03;;
54993;SDS011;40891;47.242;8.648;2022-12-05T07:31:34;3.07;;;0.97;;
54993;SDS011;40891;47.242;8.648;2022-12-05T07:34:00;1.80;;;1.13;;
54993;SDS011;40891;47.242;8.648;2022-12-05T07:36:26;3.27;;;1.13;;
54993;SDS011;40891;47.242;8.648;2022-12-05T07:38:55;1.00;;;0.90;;
54993;SDS011;40891;47.242;8.648;2022-12-05T07:41:23;1.40;;;0.80;;
54993;SDS011;40891;47.242;8.648;2022-12-05T07:43:53;1.13;;;0.83;;
54993;SDS011;40891;47.242;8.648;2022-12-05T07:46:19;0.90;;;0.80;;
54993;SDS011;40891;47.242;8.648;2022-12-05T07:48:46;2.30;;;1.37;;
54993;SDS011;40891;47.242;8.648;2022-12-05T07:51:11;4.97;;;1.33;;
54993;SDS011;40891;47.242;8.648;2022-12-05T07:53:37;2.47;;;1.70;;
54993;SDS011;40891;47.242;8.648;2022-12-05T07:56:05;2.93;;;1.47;;
54993;SDS011;40891;47.242;8.648;2022-12-05T07:58:32;4.00;;;1.70;;
54993;SDS011;40891;47.242;8.648;2022-12-05T08:01:05;1.30;;;0.90;;
54993;SDS011;40891;47.242;8.648;2022-12-05T08:03:32;2.77;;;1.60;;
54993;SDS011;40891;47.242;8.648;2022-12-05T08:06:02;4.63;;;2.10;;
54993;SDS011;40891;47.242;8.648;2022-12-05T08:08:31;3.93;;;1.90;;
54993;SDS011;40891;47.242;8.648;2022-12-05T08:11:01;2.17;;;1.40;;
54993;SDS011;40891;47.242;8.648;2022-12-05T08:13:29;3.80;;;2.00;;
54993;SDS011;40891;47.242;8.648;2022-12-05T08:15:54;4.03;;;2.33;;
54993;SDS011;40891;47.242;8.648;2022-12-05T08:18:19;4.83;;;2.80;;
54993;SDS011;40891;47.242;8.648;2022-12-05T08:20:45;4.97;;;2.77;;
54993;SDS011;40891;47.242;8.648;2022-12-05T08:23:10;5.47;;;2.97;;
54993;SDS011;40891;47.242;8.648;2022-12-05T08:25:36;4.90;;;2.80;;
54993;SDS011;40891;47.242;8.648;2022-12-05T08:28:01;4.97;;;2.77;;
54993;SDS011;40891;47.242;8.648;2022-12-05T08:30:26;6.17;;;2.70;;
54993;SDS011;40891;47.242;8.648;2022-12-05T08:32:51;4.10;;;2.50;;
54993;SDS011;40891;47.242;8.648;2022-12-05T08:35:17;3.37;;;2.20;;
54993;SDS011;40891;47.242;8.648;2022-12-05T08:37:42;4.67;;;2.60;;
54993;SDS011;40891;47.242;8.648;2022-12-05T08:40:07;5.43;;;2.30;;
54993;SDS011;40891;47.242;8.648;2022-12-05T08:42:33;3.63;;;1.93;;
54993;SDS011;40891;47.242;8.648;2022-12-05T08:44:58;3.03;;;1.80;;
54993;SDS011;40891;47.242;8.648;2022-12-05T08:47:24;1.87;;;1.40;;
54993;SDS011;40891;47.242;8.648;2022-12-05T08:49:49;2.33;;;1.60;;
54993;SDS011;40891;47.242;8.648;2022-12-05T08:52:14;6.67;;;1.70;;
54993;SDS011;40891;47.242;8.648;2022-12-05T08:54:40;3.20;;;2.10;;
54993;SDS011;40891;47.242;8.648;2022-12-05T08:57:05;2.63;;;1.67;;
54993;SDS011;40891;47.242;8.648;2022-12-05T08:59:30;1.93;;;1.30;;
54993;SDS011;40891;47.242;8.648;2022-12-05T09:01:56;2.87;;;1.60;;
54993;SDS011;40891;47.242;8.648;2022-12-05T09:04:21;1.93;;;1.43;;
54993;SDS011;40891;47.242;8.648;2022-12-05T09:06:46;2.70;;;1.43;;
54993;SDS011;40891;47.242;8.648;2022-12-05T09:09:12;2.13;;;1.33;;
54993;SDS011;40891;47.242;8.648;2022-12-05T09:11:41;3.80;;;1.00;;
54993;SDS011;40891;47.242;8.648;2022-12-05T09:14:10;1.60;;;0.90;;
54993;SDS011;40891;47.242;8.648;2022-12-05T09:16:36;2.93;;;1.30;;
54993;SDS011;40891;47.242;8.648;2022-12-05T09:19:02;2.20;;;1.30;;
54993;SDS011;40891;47.242;8.648;2022-12-05T09:21:29;2.77;;;1.10;;
54993;SDS011;40891;47.242;8.648;2022-12-05T09:23:57;3.00;;;1.07;;
54993;SDS011;40891;47.242;8.648;2022-12-05T09:26:23;2.10;;;1.07;;
54993;SDS011;40891;47.242;8.648;2022-12-05T09:28:50;1.77;;;1.10;;
54993;SDS011;40891;47.242;8.648;2022-12-05T09:31:17;1.93;;;1.50;;
54993;SDS011;40891;47.242;8.648;2022-12-05T09:33:45;2.03;;;1.43;;
54993;SDS011;40891;47.242;8.648;2022-12-05T09:36:15;1.37;;;1.00;;
54993;SDS011;40891;47.242;8.648;2022-12-05T09:38:45;5.20;;;1.70;;
54993;SDS011;40891;47.242;8.648;2022-12-05T09:46:57;3.87;;;1.40;;
54993;SDS011;40891;47.242;8.648;2022-12-05T09:49:27;3.50;;;1.30;;
54993;SDS011;40891;47.242;8.648;2022-12-05T09:51:55;1.70;;;1.27;;
54993;SDS011;40891;47.242;8.648;2022-12-05T09:54:22;3.90;;;1.23;;
54993;SDS011;40891;47.242;8.648;2022-12-05T09:56:49;2.20;;;1.37;;
54993;SDS011;40891;47.242;8.648;2022-12-05T09:59:17;1.70;;;1.13;;
54993;SDS011;40891;47.242;8.648;2022-12-05T10:07:18;2.10;;;1.30;;
54993;SDS011;40891;47.242;8.648;2022-12-05T10:15:26;1.30;;;1.00;;
54993;SDS011;40891;47.242;8.648;2022-12-05T10:20:35;1.20;;;1.00;;
54993;SDS011;40891;47.242;8.648;2022-12-05T10:23:20;1.47;;;1.17;;
54993;SDS011;40891;47.242;8.648;2022-12-05T10:26:07;2.40;;;1.20;;
54993;SDS011;40891;47.242;8.648;2022-12-05T10:28:39;1.47;;;1.07;;
54993;SDS011;40891;47.242;8.648;2022-12-05T10:31:12;1.40;;;1.20;;
54993;SDS011;40891;47.242;8.648;2022-12-05T10:33:42;1.47;;;1.10;;
54993;SDS011;40891;47.242;8.648;2022-12-05T10:36:14;2.00;;;1.20;;
54993;SDS011;40891;47.242;8.648;2022-12-05T10:38:41;2.27;;;1.33;;
54993;SDS011;40891;47.242;8.648;2022-12-05T10:41:12;4.07;;;1.67;;
54993;SDS011;40891;47.242;8.648;2022-12-05T10:43:40;2.27;;;1.30;;
54993;SDS011;40891;47.242;8.648;2022-12-05T10:46:07;1.50;;;1.10;;
54993;SDS011;40891;47.242;8.648;2022-12-05T10:48:35;2.33;;;1.60;;
54993;SDS011;40891;47.242;8.648;2022-12-05T10:51:02;1.90;;;1.30;;
54993;SDS011;40891;47.242;8.648;2022-12-05T10:53:42;1.87;;;1.40;;
54993;SDS011;40891;47.242;8.648;2022-12-05T10:56:55;2.33;;;1.30;;
54993;SDS011;40891;47.242;8.648;2022-12-05T10:59:06;1.50;;;1.40;;
54993;SDS011;40891;47.242;8.648;2022-12-05T11:01:34;2.23;;;1.70;;
54993;SDS011;40891;47.242;8.648;2022-12-05T11:04:04;2.93;;;1.60;;
54993;SDS011;40891;47.242;8.648;2022-12-05T11:06:54;1.67;;;1.20;;
54993;SDS011;40891;47.242;8.648;2022-12-05T11:09:29;3.83;;;1.77;;
54993;SDS011;40891;47.242;8.648;2022-12-05T11:15:04;3.10;;;1.37;;
54993;SDS011;40891;47.242;8.648;2022-12-05T11:17:43;1.57;;;1.47;;
54993;SDS011;40891;47.242;8.648;2022-12-05T11:22:48;1.83;;;1.50;;
54993;SDS011;40891;47.242;8.648;2022-12-05T11:27:52;3.20;;;1.60;;
54993;SDS011;40891;47.242;8.648;2022-12-05T11:30:23;2.67;;;1.47;;
54993;SDS011;40891;47.242;8.648;2022-12-05T11:33:09;2.00;;;1.50;;
54993;SDS011;40891;47.242;8.648;2022-12-05T11:35:40;1.87;;;1.20;;
54993;SDS011;40891;47.242;8.648;2022-12-05T11:38:08;1.80;;;1.60;;
54993;SDS011;40891;47.242;8.648;2022-12-05T11:40:37;2.63;;;1.90;;
54993;SDS011;40891;47.242;8.648;2022-12-05T11:51:31;2.90;;;2.10;;
54993;SDS011;40891;47.242;8.648;2022-12-05T11:57:25;3.37;;;1.90;;
54993;SDS011;40891;47.242;8.648;2022-12-05T12:02:51;2.57;;;2.07;;
54993;SDS011;40891;47.242;8.648;2022-12-05T12:13:29;3.20;;;2.27;;
54993;SDS011;40891;47.242;8.648;2022-12-05T12:19:01;2.40;;;1.87;;
54993;SDS011;40891;47.242;8.648;2022-12-05T12:28:00;3.43;;;1.80;;
54993;SDS011;40891;47.242;8.648;2022-12-05T12:33:02;2.57;;;1.80;;
54993;SDS011;40891;47.242;8.648;2022-12-05T12:41:05;3.57;;;2.00;;
54993;SDS011;40891;47.242;8.648;2022-12-05T12:46:26;2.63;;;1.60;;
54993;SDS011;40891;47.242;8.648;2022-12-05T12:49:00;1.97;;;1.50;;
54993;SDS011;40891;47.242;8.648;2022-12-05T12:51:43;5.47;;;1.60;;
54993;SDS011;40891;47.242;8.648;2022-12-05T12:54:34;1.80;;;1.30;;
54993;SDS011;40891;47.242;8.648;2022-12-05T12:57:20;2.33;;;1.70;;
54993;SDS011;40891;47.242;8.648;2022-12-05T13:00:17;2.30;;;1.40;;
54993;SDS011;40891;47.242;8.648;2022-12-05T13:06:46;7.23;;;1.80;;
54993;SDS011;40891;47.242;8.648;2022-12-05T13:09:27;2.97;;;1.50;;
54993;SDS011;40891;47.242;8.648;2022-12-05T13:12:03;2.20;;;1.40;;
54993;SDS011;40891;47.242;8.648;2022-12-05T13:14:34;1.67;;;1.30;;
54993;SDS011;40891;47.242;8.648;2022-12-05T13:17:02;2.83;;;1.50;;
54993;SDS011;40891;47.242;8.648;2022-12-05T13:19:34;4.97;;;1.47;;
54993;SDS011;40891;47.242;8.648;2022-12-05T13:22:06;1.70;;;1.20;;
54993;SDS011;40891;47.242;8.648;2022-12-05T13:24:33;1.50;;;1.40;;
54993;SDS011;40891;47.242;8.648;2022-12-05T13:26:59;4.13;;;1.70;;
54993;SDS011;40891;47.242;8.648;2022-12-05T13:29:30;1.87;;;1.60;;
54993;SDS011;40891;47.242;8.648;2022-12-05T13:31:57;2.10;;;1.80;;
54993;SDS011;40891;47.242;8.648;2022-12-05T13:37:22;2.60;;;1.80;;
54993;SDS011;40891;47.242;8.648;2022-12-05T13:40:23;2.90;;;1.70;;
54993;SDS011;40891;47.242;8.648;2022-12-05T13:43:10;3.80;;;1.43;;
54993;SDS011;40891;47.242;8.648;2022-12-05T13:45:38;2.93;;;1.60;;
54993;SDS011;40891;47.242;8.648;2022-12-05T13:48:09;3.07;;;1.70;;
54993;SDS011;40891;47.242;8.648;2022-12-05T13:50:51;2.03;;;1.40;;
54993;SDS011;40891;47.242;8.648;2022-12-05T13:53:26;2.30;;;1.50;;
54993;SDS011;40891;47.242;8.648;2022-12-05T13:56:04;4.13;;;1.70;;
54993;SDS011;40891;47.242;8.648;2022-12-05T13:58:51;1.97;;;1.47;;
54993;SDS011;40891;47.242;8.648;2022-12-05T14:09:04;1.70;;;1.40;;
54993;SDS011;40891;47.242;8.648;2022-12-05T14:17:20;2.53;;;1.63;;
54993;SDS011;40891;47.242;8.648;2022-12-05T14:19:58;2.03;;;1.60;;
54993;SDS011;40891;47.242;8.648;2022-12-05T14:25:34;3.13;;;1.70;;
54993;SDS011;40891;47.242;8.648;2022-12-05T14:28:07;2.30;;;1.80;;
54993;SDS011;40891;47.242;8.648;2022-12-05T14:33:34;4.23;;;1.53;;
54993;SDS011;40891;47.242;8.648;2022-12-05T14:36:06;1.93;;;1.43;;
54993;SDS011;40891;47.242;8.648;2022-12-05T14:38:39;5.00;;;1.50;;
54993;SDS011;40891;47.242;8.648;2022-12-05T14:41:16;2.20;;;1.50;;
54993;SDS011;40891;47.242;8.648;2022-12-05T14:43:53;2.13;;;1.60;;
54993;SDS011;40891;47.242;8.648;2022-12-05T14:46:24;2.00;;;1.40;;
54993;SDS011;40891;47.242;8.648;2022-12-05T14:48:52;1.73;;;1.30;;
54993;SDS011;40891;47.242;8.648;2022-12-05T14:53:54;2.43;;;1.60;;
54993;SDS011;40891;47.242;8.648;2022-12-05T14:56:26;3.93;;;1.60;;
54993;SDS011;40891;47.242;8.648;2022-12-05T14:58:54;2.50;;;1.50;;
54993;SDS011;40891;47.242;8.648;2022-12-05T15:01:26;3.27;;;1.77;;
54993;SDS011;40891;47.242;8.648;2022-12-05T15:06:57;2.10;;;1.43;;
54993;SDS011;40891;47.242;8.648;2022-12-05T15:09:30;1.70;;;1.40;;
54993;SDS011;40891;47.242;8.648;2022-12-05T15:12:21;2.67;;;1.70;;
54993;SDS011;40891;47.242;8.648;2022-12-05T15:14:57;2.70;;;1.60;;
54993;SDS011;40891;47.242;8.648;2022-12-05T15:17:44;2.63;;;1.60;;
54993;SDS011;40891;47.242;8.648;2022-12-05T15:23:28;2.43;;;1.57;;
54993;SDS011;40891;47.242;8.648;2022-12-05T15:36:46;3.10;;;1.53;;
54993;SDS011;40891;47.242;8.648;2022-12-05T15:39:20;7.10;;;1.60;;
54993;SDS011;40891;47.242;8.648;2022-12-05T15:41:53;2.30;;;1.60;;
54993;SDS011;40891;47.242;8.648;2022-12-05T15:44:21;1.67;;;1.40;;
54993;SDS011;40891;47.242;8.648;2022-12-05T15:46:52;2.10;;;1.40;;
54993;SDS011;40891;47.242;8.648;2022-12-05T15:49:20;5.37;;;1.63;;
54993;SDS011;40891;47.242;8.648;2022-12-05T15:51:51;1.93;;;1.23;;
54993;SDS011;40891;47.242;8.648;2022-12-05T15:54:28;3.20;;;1.53;;
54993;SDS011;40891;47.242;8.648;2022-12-05T15:57:08;4.07;;;1.83;;
54993;SDS011;40891;47.242;8.648;2022-12-05T15:59:44;3.10;;;1.90;;
54993;SDS011;40891;47.242;8.648;2022-12-05T16:02:19;3.97;;;2.83;;
54993;SDS011;40891;47.242;8.648;2022-12-05T16:04:54;3.87;;;2.47;;
54993;SDS011;40891;47.242;8.648;2022-12-05T16:07:22;3.60;;;2.33;;
54993;SDS011;40891;47.242;8.648;2022-12-05T16:09:51;5.10;;;2.20;;
54993;SDS011;40891;47.242;8.648;2022-12-05T16:12:41;3.90;;;2.23;;
54993;SDS011;40891;47.242;8.648;2022-12-05T16:15:12;3.33;;;2.30;;
54993;SDS011;40891;47.242;8.648;2022-12-05T16:17:52;4.53;;;2.30;;
54993;SDS011;40891;47.242;8.648;2022-12-05T16:20:20;3.20;;;2.40;;
54993;SDS011;40891;47.242;8.648;2022-12-05T16:22:49;5.00;;;2.60;;
54993;SDS011;40891;47.242;8.648;2022-12-05T16:25:17;5.87;;;2.30;;
54993;SDS011;40891;47.242;8.648;2022-12-05T16:27:58;4.10;;;2.03;;
54993;SDS011;40891;47.242;8.648;2022-12-05T16:30:37;2.60;;;1.77;;
54993;SDS011;40891;47.242;8.648;2022-12-05T16:35:36;3.43;;;1.90;;
54993;SDS011;40891;47.242;8.648;2022-12-05T16:40:35;3.50;;;1.97;;
54993;SDS011;40891;47.242;8.648;2022-12-05T16:43:05;3.97;;;1.73;;
54993;SDS011;40891;47.242;8.648;2022-12-05T16:45:42;4.27;;;2.10;;
54993;SDS011;40891;47.242;8.648;2022-12-05T16:48:28;3.77;;;2.10;;
54993;SDS011;40891;47.242;8.648;2022-12-05T16:53:57;2.17;;;1.60;;
54993;SDS011;40891;47.242;8.648;2022-12-05T16:56:29;3.13;;;1.97;;
54993;SDS011;40891;47.242;8.648;2022-12-05T16:58:56;2.77;;;1.90;;
54993;SDS011;40891;47.242;8.648;2022-12-05T17:01:23;5.07;;;2.00;;
54993;SDS011;40891;47.242;8.648;2022-12-05T17:03:50;3.17;;;1.83;;
54993;SDS011;40891;47.242;8.648;2022-12-05T17:06:17;3.83;;;2.10;;
54993;SDS011;40891;47.242;8.648;2022-12-05T17:08:42;2.97;;;2.23;;
54993;SDS011;40891;47.242;8.648;2022-12-05T17:11:13;3.03;;;2.00;;
54993;SDS011;40891;47.242;8.648;2022-12-05T17:13:43;4.33;;;2.33;;
54993;SDS011;40891;47.242;8.648;2022-12-05T17:16:11;3.80;;;2.20;;
54993;SDS011;40891;47.242;8.648;2022-12-05T17:18:36;5.27;;;2.13;;
54993;SDS011;40891;47.242;8.648;2022-12-05T17:21:02;3.73;;;2.30;;
54993;SDS011;40891;47.242;8.648;2022-12-05T17:23:27;3.00;;;2.33;;
54993;SDS011;40891;47.242;8.648;2022-12-05T17:25:54;6.33;;;2.73;;
54993;SDS011;40891;47.242;8.648;2022-12-05T17:28:20;6.10;;;2.87;;
54993;SDS011;40891;47.242;8.648;2022-12-05T17:30:46;4.63;;;2.97;;
54993;SDS011;40891;47.242;8.648;2022-12-05T17:33:13;7.83;;;3.13;;
54993;SDS011;40891;47.242;8.648;2022-12-05T17:35:40;5.40;;;2.87;;